Time;durP1;ratioP1;P1;durP2;ratioP2;P2;SDS_P1;SDS_P2;PMS_P1;PMS_P2;Temp;Humidity;BMP_temperature;BMP_pressure;BME280_temperature;BME280_humidity;BME280_pressure;Samples;Min_cycle;Max_cycle;Signal;HPM_P1;HPM_P2
2022/10/13 00:00:25;;;;;;;1.35;1.02;;;8.80;99.90;;;;;;4960721;28;20135;-78
2022/10/13 00:02:50;;;;;;;1.02;0.65;;;8.80;99.90;;;;;;4983977;28;20042;-80
2022/10/13 00:05:16;;;;;;;1.08;0.88;;;9.30;99.90;;;;;;4975289;28;20157;-78
2022/10/13 00:07:42;;;;;;;0.77;0.77;;;8.80;99.90;;;;;;4970968;28;20054;-80
2022/10/13 00:10:08;;;;;;;4.78;1.48;;;8.80;97.60;;;;;;4969554;28;20057;-78
2022/10/13 00:12:35;;;;;;;3.60;1.45;;;8.90;99.90;;;;;;4970624;28;20579;-78
2022/10/13 00:15:00;;;;;;;1.98;0.80;;;8.90;99.90;;;;;;4953397;28;20051;-80
2022/10/13 00:17:26;;;;;;;0.38;0.38;;;8.90;99.90;;;;;;4951364;29;20509;-77
2022/10/13 00:19:52;;;;;;;4.70;2.20;;;8.90;99.90;;;;;;4951603;29;20083;-78
2022/10/13 00:22:17;;;;;;;0.88;0.50;;;8.90;99.90;;;;;;4951603;29;20039;-78
2022/10/13 00:24:43;;;;;;;0.47;0.40;;;8.90;99.90;;;;;;4966803;28;20047;-78
2022/10/13 00:27:09;;;;;;;3.05;2.38;;;9.00;99.90;;;;;;4971992;28;20097;-79
2022/10/13 00:29:34;;;;;;;0.43;0.32;;;8.90;99.90;;;;;;4971583;28;20054;-78
2022/10/13 00:32:00;;;;;;;0.75;0.60;;;8.90;99.90;;;;;;4970268;28;20470;-80
2022/10/13 00:34:25;;;;;;;1.10;0.80;;;8.90;99.90;;;;;;4969996;28;20126;-78
2022/10/13 00:36:51;;;;;;;0.85;0.85;;;8.80;99.90;;;;;;4968923;28;20433;-78
2022/10/13 00:39:17;;;;;;;0.60;0.60;;;8.80;99.90;;;;;;4969202;28;20070;-78
2022/10/13 00:41:42;;;;;;;0.63;0.57;;;8.70;99.90;;;;;;4970245;28;20062;-79
2022/10/13 00:44:47;;;;;;;1.17;0.90;;;8.70;99.90;;;;;;4952066;28;20074;-78
2022/10/13 00:47:12;;;;;;;2.15;1.38;;;8.60;99.90;;;;;;4943224;28;20117;-79
2022/10/13 00:49:38;;;;;;;1.27;1.17;;;8.60;99.90;;;;;;4970170;28;20469;-80
2022/10/13 00:52:04;;;;;;;2.05;0.88;;;8.60;99.90;;;;;;4969650;28;20105;-79
2022/10/13 00:54:29;;;;;;;0.20;0.20;;;8.60;99.90;;;;;;4968656;28;20519;-78
2022/10/13 00:56:56;;;;;;;1.65;1.10;;;8.60;99.90;;;;;;4969737;28;20043;-79
2022/10/13 00:59:27;;;;;;;1.00;0.98;;;8.60;99.90;;;;;;4969245;28;20041;-79
2022/10/13 01:01:56;;;;;;;0.85;0.60;;;8.60;99.90;;;;;;4988117;28;20068;-78
2022/10/13 01:04:25;;;;;;;0.68;0.50;;;8.50;99.90;;;;;;4981763;28;20062;-80
2022/10/13 01:06:52;;;;;;;0.75;0.70;;;8.50;99.90;;;;;;4951291;28;20055;-79
2022/10/13 01:09:18;;;;;;;3.03;1.90;;;8.50;99.90;;;;;;4969146;28;20058;-80
2022/10/13 01:12:25;;;;;;;7.88;1.15;;;8.60;99.90;;;;;;4951181;28;20039;-79
2022/10/13 01:15:16;;;;;;;0.32;0.32;;;8.60;99.90;;;;;;4904750;29;20058;-80
2022/10/13 01:18:10;;;;;;;0.80;0.80;;;8.60;99.90;;;;;;4970489;28;20911;-78
2022/10/13 01:21:22;;;;;;;2.08;1.60;;;8.60;99.90;;;;;;4970457;28;20063;-79
2022/10/13 01:24:11;;;;;;;7.05;2.83;;;8.60;99.90;;;;;;4942484;28;20055;-79
2022/10/13 01:26:48;;;;;;;2.05;1.13;;;8.60;99.90;;;;;;4992486;28;20050;-78
2022/10/13 01:29:44;;;;;;;3.55;2.10;;;8.60;99.90;;;;;;4992178;28;20066;-81
2022/10/13 01:32:25;;;;;;;0.95;0.52;;;8.70;99.90;;;;;;4974347;28;20057;-78
2022/10/13 01:35:07;;;;;;;0.65;0.63;;;8.70;99.90;;;;;;4991930;28;20050;-80
2022/10/13 01:37:44;;;;;;;2.90;2.20;;;8.70;99.90;;;;;;4991703;28;20606;-79
2022/10/13 01:40:23;;;;;;;1.25;1.13;;;8.70;99.90;;;;;;4993186;28;20615;-79
2022/10/13 01:42:51;;;;;;;0.65;0.65;;;8.60;99.90;;;;;;4992284;28;20572;-79
2022/10/13 01:45:22;;;;;;;0.22;0.22;;;8.60;99.90;;;;;;4983089;28;20073;-79
2022/10/13 01:47:50;;;;;;;1.25;1.08;;;8.60;99.90;;;;;;4972787;28;20113;-79
2022/10/13 01:50:18;;;;;;;0.30;0.30;;;8.60;99.90;;;;;;4972894;28;20050;-79
2022/10/13 01:52:44;;;;;;;2.17;1.00;;;8.60;99.90;;;;;;4981869;28;20050;-78
2022/10/13 01:55:11;;;;;;;1.08;0.95;;;8.60;99.90;;;;;;4993194;28;20091;-78
2022/10/13 01:57:43;;;;;;;1.17;1.08;;;8.60;99.90;;;;;;4992729;28;20050;-78
2022/10/13 02:00:16;;;;;;;0.95;0.88;;;8.70;99.90;;;;;;4974643;28;20054;-78
2022/10/13 02:02:43;;;;;;;1.02;0.70;;;8.70;99.90;;;;;;4991387;28;20046;-78
2022/10/13 02:05:39;;;;;;;0.60;0.52;;;8.80;99.90;;;;;;4981770;28;20591;-79
2022/10/13 02:08:39;;;;;;;0.50;0.50;;;8.80;99.90;;;;;;4961021;28;20058;-78
2022/10/13 02:11:19;;;;;;;2.35;1.45;;;8.80;99.90;;;;;;4973503;28;20055;-78
2022/10/13 02:14:08;;;;;;;1.98;1.05;;;8.80;99.90;;;;;;4973482;28;20126;-80
2022/10/13 02:16:38;;;;;;;1.05;0.93;;;8.90;99.90;;;;;;4973933;28;20100;-78
2022/10/13 02:19:07;;;;;;;0.57;0.50;;;8.90;99.90;;;;;;4955391;28;20046;-79
2022/10/13 02:21:34;;;;;;;0.55;0.50;;;8.90;99.90;;;;;;4972015;28;20081;-79
2022/10/13 02:24:00;;;;;;;1.05;0.73;;;8.90;99.90;;;;;;4972167;28;20125;-79
2022/10/13 02:26:26;;;;;;;0.38;0.35;;;8.90;99.90;;;;;;4972197;28;20139;-79
2022/10/13 02:28:52;;;;;;;2.17;1.45;;;8.90;99.90;;;;;;4955269;28;20054;-78
2022/10/13 02:31:18;;;;;;;1.05;0.90;;;8.90;99.90;;;;;;4972845;28;20043;-79
2022/10/13 02:33:43;;;;;;;2.03;1.27;;;8.80;99.90;;;;;;4972897;28;20051;-79
2022/10/13 02:36:09;;;;;;;0.52;0.43;;;8.80;99.90;;;;;;4972399;28;20531;-79
2022/10/13 02:38:34;;;;;;;1.85;1.33;;;8.80;99.90;;;;;;4972072;28;20098;-79
2022/10/13 02:41:01;;;;;;;0.40;0.40;;;8.80;99.90;;;;;;4973120;28;20461;-79
2022/10/13 02:43:28;;;;;;;0.98;0.80;;;8.80;99.90;;;;;;4972468;28;20131;-79
2022/10/13 02:45:53;;;;;;;0.20;0.20;;;8.80;99.90;;;;;;4972488;28;20113;-78
2022/10/13 02:48:19;;;;;;;0.98;0.90;;;8.80;99.90;;;;;;4954834;28;20050;-80
2022/10/13 02:50:46;;;;;;;2.40;2.00;;;8.90;99.90;;;;;;4982409;28;20053;-78
2022/10/13 02:53:12;;;;;;;2.20;1.30;;;8.90;99.90;;;;;;4993775;28;20084;-80
2022/10/13 02:55:37;;;;;;;2.30;1.70;;;8.90;99.90;;;;;;4993258;28;20062;-78
2022/10/13 02:58:03;;;;;;;1.35;1.00;;;8.90;99.90;;;;;;4993456;28;20085;-79
2022/10/13 03:00:28;;;;;;;0.88;0.73;;;8.90;99.90;;;;;;4991872;28;20110;-80
2022/10/13 03:02:55;;;;;;;1.02;0.93;;;8.90;99.90;;;;;;4992609;28;20057;-80
2022/10/13 03:05:20;;;;;;;6.07;2.05;;;8.90;99.90;;;;;;4992467;28;20035;-78
2022/10/13 03:07:46;;;;;;;6.25;3.38;;;8.90;99.90;;;;;;4991919;28;20103;-78
2022/10/13 03:10:12;;;;;;;0.65;0.65;;;8.90;99.90;;;;;;4993015;28;20038;-79
2022/10/13 03:12:37;;;;;;;1.40;1.20;;;9.00;99.90;;;;;;4974106;28;20073;-78
2022/10/13 03:15:03;;;;;;;2.30;1.75;;;9.10;99.90;;;;;;4976044;28;20614;-79
2022/10/13 03:17:29;;;;;;;1.13;1.05;;;9.10;99.90;;;;;;4986480;28;20050;-78
2022/10/13 03:19:54;;;;;;;1.10;0.93;;;9.20;99.90;;;;;;4972949;28;20043;-79
2022/10/13 03:22:20;;;;;;;4.53;1.70;;;9.20;99.90;;;;;;4972225;28;20098;-79
2022/10/13 03:24:46;;;;;;;2.88;1.10;;;9.30;99.90;;;;;;4972802;28;20058;-79
2022/10/13 03:27:11;;;;;;;0.98;0.88;;;9.20;99.90;;;;;;4975388;28;20069;-79
2022/10/13 03:29:37;;;;;;;0.47;0.47;;;9.10;99.90;;;;;;4974742;28;20410;-80
2022/10/13 03:32:03;;;;;;;2.58;0.80;;;9.10;99.90;;;;;;4992752;28;20061;-80
2022/10/13 03:34:29;;;;;;;1.58;1.23;;;9.10;99.90;;;;;;4991481;28;21141;-79
2022/10/13 03:36:54;;;;;;;2.97;1.05;;;9.10;99.90;;;;;;4991581;28;20038;-79
2022/10/13 03:39:21;;;;;;;1.02;0.93;;;9.10;99.90;;;;;;4992001;28;20042;-79
2022/10/13 03:41:46;;;;;;;1.33;0.57;;;9.10;99.90;;;;;;4991980;28;20173;-78
2022/10/13 03:44:12;;;;;;;1.63;0.65;;;9.10;99.90;;;;;;4991087;28;20088;-79
2022/10/13 03:46:38;;;;;;;5.80;2.40;;;9.10;99.90;;;;;;4990206;28;20065;-79
2022/10/13 03:49:04;;;;;;;4.05;1.00;;;9.10;99.90;;;;;;4972866;28;20584;-80
2022/10/13 03:51:30;;;;;;;1.17;0.68;;;9.10;99.90;;;;;;4954774;28;20102;-80
2022/10/13 03:53:56;;;;;;;0.30;0.30;;;9.10;99.90;;;;;;4971108;28;20047;-79
2022/10/13 03:56:25;;;;;;;1.20;1.02;;;9.10;99.90;;;;;;4971841;28;20043;-79
2022/10/13 03:58:54;;;;;;;0.40;0.40;;;10.00;99.90;;;;;;4986896;28;20105;-80
2022/10/13 04:01:25;;;;;;;0.75;0.75;;;9.10;99.90;;;;;;4989513;28;20058;-80
2022/10/13 04:03:53;;;;;;;0.88;0.60;;;9.10;99.90;;;;;;4989378;28;20046;-81
2022/10/13 04:06:19;;;;;;;0.32;0.32;;;9.10;99.90;;;;;;4988075;28;20054;-81
2022/10/13 04:08:44;;;;;;;1.15;0.75;;;9.10;99.90;;;;;;4973473;28;20564;-82
2022/10/13 04:11:13;;;;;;;0.68;0.68;;;9.10;99.90;;;;;;4951168;28;20509;-80
2022/10/13 04:13:39;;;;;;;0.98;0.65;;;9.10;99.90;;;;;;4968218;28;20077;-81
2022/10/13 04:16:11;;;;;;;0.43;0.43;;;9.10;99.90;;;;;;4968581;28;20109;-81
2022/10/13 04:18:37;;;;;;;2.88;1.45;;;9.00;99.90;;;;;;4980141;28;20045;-82
2022/10/13 04:21:10;;;;;;;2.72;1.85;;;9.10;99.90;;;;;;4998034;28;20455;-82
2022/10/13 04:23:36;;;;;;;0.65;0.40;;;9.10;99.90;;;;;;4982863;28;20050;-81
2022/10/13 04:26:03;;;;;;;1.05;0.98;;;9.10;99.90;;;;;;4988201;28;20719;-81
2022/10/13 04:28:32;;;;;;;0.30;0.30;;;9.10;99.90;;;;;;4978957;28;20090;-81
2022/10/13 04:30:58;;;;;;;0.95;0.93;;;9.10;99.90;;;;;;4968772;28;20522;-81
2022/10/13 04:33:24;;;;;;;0.73;0.73;;;9.10;99.90;;;;;;4968074;28;20047;-81
2022/10/13 04:35:49;;;;;;;0.52;0.40;;;9.10;99.90;;;;;;4969159;28;20070;-82
2022/10/13 04:38:15;;;;;;;13.93;1.40;;;9.10;99.90;;;;;;4976102;28;20145;-81
2022/10/13 04:40:41;;;;;;;0.68;0.65;;;9.10;99.90;;;;;;4971572;28;20463;-83
2022/10/13 04:43:06;;;;;;;1.65;1.55;;;9.10;99.90;;;;;;4988765;28;20042;-81
2022/10/13 04:45:32;;;;;;;1.92;0.95;;;9.10;99.90;;;;;;4984462;28;20070;-81
2022/10/13 04:47:59;;;;;;;1.52;1.30;;;9.00;99.90;;;;;;4984649;28;20513;-82
2022/10/13 04:50:25;;;;;;;0.30;0.30;;;9.00;99.90;;;;;;4985608;28;20042;-83
2022/10/13 04:52:51;;;;;;;0.93;0.88;;;9.00;99.90;;;;;;4986530;28;20389;-82
2022/10/13 04:55:16;;;;;;;0.40;0.40;;;9.00;99.90;;;;;;4986950;28;20046;-81
2022/10/13 04:57:42;;;;;;;2.95;1.38;;;9.10;99.90;;;;;;4985974;28;20540;-82
2022/10/13 05:00:08;;;;;;;1.48;1.15;;;9.10;99.90;;;;;;4986901;28;20074;-83
2022/10/13 05:02:35;;;;;;;7.35;2.35;;;9.10;99.90;;;;;;4978524;28;20126;-84
2022/10/13 05:05:01;;;;;;;1.55;0.95;;;9.10;99.90;;;;;;4960803;28;20109;-83
2022/10/13 05:07:26;;;;;;;2.95;0.43;;;9.20;99.90;;;;;;4978556;28;20043;-84
2022/10/13 05:09:52;;;;;;;0.63;0.57;;;10.10;99.90;;;;;;4991959;28;20038;-82
2022/10/13 05:12:18;;;;;;;3.53;1.77;;;9.20;99.90;;;;;;4992110;28;20064;-83
2022/10/13 05:14:44;;;;;;;0.52;0.52;;;9.30;99.90;;;;;;4991673;28;20042;-84
2022/10/13 05:17:10;;;;;;;28.65;1.15;;;9.30;99.90;;;;;;4991243;28;20045;-84
2022/10/13 05:19:35;;;;;;;1.40;0.82;;;9.20;99.90;;;;;;4988391;28;20100;-82
2022/10/13 05:22:01;;;;;;;1.85;1.63;;;9.20;99.90;;;;;;4990478;28;20528;-83
2022/10/13 05:24:35;;;;;;;1.55;1.02;;;9.20;99.90;;;;;;4990404;28;20043;-83
2022/10/13 05:27:03;;;;;;;0.80;0.73;;;9.20;99.90;;;;;;4991246;28;20082;-82
2022/10/13 05:29:29;;;;;;;2.88;1.52;;;9.30;99.90;;;;;;4989958;28;20050;-83
2022/10/13 05:31:55;;;;;;;1.30;0.75;;;9.30;99.90;;;;;;4988989;28;20174;-83
2022/10/13 05:34:20;;;;;;;4.75;2.17;;;9.30;99.90;;;;;;4990548;28;20054;-84
2022/10/13 05:36:46;;;;;;;2.88;2.10;;;9.30;99.90;;;;;;4989128;28;20042;-83
2022/10/13 05:39:12;;;;;;;4.95;1.45;;;9.30;99.90;;;;;;4987495;28;20038;-83
2022/10/13 05:41:38;;;;;;;1.13;1.02;;;9.30;99.90;;;;;;4988755;28;20070;-84
2022/10/13 05:44:07;;;;;;;0.85;0.73;;;9.40;99.90;;;;;;4984517;28;20046;-84
2022/10/13 05:46:32;;;;;;;1.63;1.33;;;9.40;99.90;;;;;;4966941;28;20054;-83
2022/10/13 05:48:58;;;;;;;1.77;1.20;;;9.40;99.90;;;;;;4984165;28;20053;-84
2022/10/13 05:51:32;;;;;;;1.40;1.17;;;9.30;99.90;;;;;;4984712;28;20101;-85
2022/10/13 05:54:03;;;;;;;2.72;1.25;;;9.40;99.90;;;;;;4984855;28;20386;-85
2022/10/13 05:56:38;;;;;;;5.18;1.30;;;9.40;99.90;;;;;;4984974;28;20457;-85
2022/10/13 05:59:06;;;;;;;1.40;0.70;;;9.40;99.90;;;;;;4966763;28;20051;-84
2022/10/13 06:01:37;;;;;;;2.40;1.55;;;9.40;99.90;;;;;;4984843;28;20054;-84
2022/10/13 06:04:08;;;;;;;1.00;0.95;;;10.10;99.90;;;;;;4984719;28;20160;-84
2022/10/13 06:06:34;;;;;;;1.65;0.88;;;9.40;99.90;;;;;;4984216;28;20053;-84
2022/10/13 06:09:00;;;;;;;1.65;1.25;;;9.50;99.90;;;;;;4983383;28;20483;-84
2022/10/13 06:11:26;;;;;;;1.77;1.65;;;9.50;99.90;;;;;;4987527;28;20087;-84
2022/10/13 06:13:52;;;;;;;1.25;1.10;;;9.50;99.90;;;;;;4969570;28;20050;-85
2022/10/13 06:16:17;;;;;;;2.20;1.63;;;9.50;99.90;;;;;;4986919;28;20390;-85
2022/10/13 06:18:43;;;;;;;2.58;2.03;;;9.60;99.90;;;;;;4986823;28;20053;-84
2022/10/13 06:21:08;;;;;;;1.75;1.63;;;9.60;99.90;;;;;;4987265;28;20116;-85
2022/10/13 06:23:34;;;;;;;0.80;0.65;;;9.70;99.90;;;;;;4987347;28;20047;-85
2022/10/13 06:26:00;;;;;;;1.13;1.02;;;9.80;99.90;;;;;;4987147;28;20042;-85
2022/10/13 06:28:26;;;;;;;2.05;1.75;;;9.80;99.90;;;;;;4987886;28;20134;-85
2022/10/13 06:30:55;;;;;;;1.65;1.42;;;9.80;99.90;;;;;;4987794;28;20053;-85
2022/10/13 06:33:23;;;;;;;1.20;1.13;;;9.80;99.90;;;;;;4987248;28;20051;-85
2022/10/13 06:35:52;;;;;;;0.98;0.82;;;9.90;99.90;;;;;;4987774;28;20081;-85
2022/10/13 06:38:18;;;;;;;2.88;2.17;;;9.90;99.90;;;;;;4986599;28;20050;-84
2022/10/13 06:40:44;;;;;;;2.83;1.70;;;9.90;99.90;;;;;;4988038;28;20051;-84
2022/10/13 06:43:09;;;;;;;1.40;1.30;;;9.90;99.90;;;;;;4987902;28;20046;-84
2022/10/13 06:45:35;;;;;;;2.22;1.42;;;9.90;99.90;;;;;;4987468;28;20038;-85
2022/10/13 06:48:01;;;;;;;2.15;1.48;;;10.00;99.90;;;;;;4987544;28;20042;-83
2022/10/13 06:50:28;;;;;;;3.03;1.48;;;10.00;99.90;;;;;;4987202;28;20153;-84
2022/10/13 06:52:55;;;;;;;2.63;1.65;;;11.00;99.90;;;;;;4986275;28;20054;-85
2022/10/13 06:55:20;;;;;;;3.88;1.75;;;10.00;99.90;;;;;;4986660;28;20042;-84
2022/10/13 06:57:46;;;;;;;1.00;0.95;;;10.10;99.90;;;;;;4986563;28;20057;-85
2022/10/13 07:00:12;;;;;;;2.35;2.08;;;10.10;99.90;;;;;;4969482;28;20050;-84
2022/10/13 07:02:38;;;;;;;0.82;0.80;;;10.20;99.90;;;;;;4969160;28;20137;-85
2022/10/13 07:05:04;;;;;;;1.80;1.13;;;10.20;99.90;;;;;;4986972;28;20054;-84
2022/10/13 07:07:30;;;;;;;1.40;0.73;;;10.30;99.90;;;;;;4986186;28;20419;-85
2022/10/13 07:09:55;;;;;;;1.33;1.23;;;10.30;99.90;;;;;;4986622;28;20049;-84
2022/10/13 07:12:21;;;;;;;4.70;1.75;;;10.70;99.90;;;;;;4986427;28;20102;-85
2022/10/13 07:14:47;;;;;;;1.13;0.98;;;10.40;99.90;;;;;;4986218;28;20050;-84
2022/10/13 07:17:13;;;;;;;1.63;1.20;;;10.40;99.90;;;;;;4983284;28;20051;-84
2022/10/13 07:19:38;;;;;;;2.65;1.75;;;10.50;99.90;;;;;;4986319;28;20042;-85
2022/10/13 07:22:04;;;;;;;0.75;0.75;;;10.50;99.90;;;;;;4997767;28;20038;-85
2022/10/13 07:24:30;;;;;;;1.45;0.88;;;10.50;99.90;;;;;;4995532;28;20062;-83
2022/10/13 07:26:55;;;;;;;1.58;1.42;;;10.50;99.90;;;;;;4987649;28;20390;-84
2022/10/13 07:29:21;;;;;;;2.17;1.98;;;10.50;99.90;;;;;;4986068;28;20050;-83
2022/10/13 07:31:47;;;;;;;3.67;2.90;;;10.50;99.90;;;;;;4986823;28;20093;-84
2022/10/13 07:34:14;;;;;;;2.70;2.03;;;10.50;99.90;;;;;;4986669;28;20052;-84
2022/10/13 07:36:40;;;;;;;1.15;1.05;;;10.50;99.90;;;;;;4986863;28;20046;-84
2022/10/13 07:39:07;;;;;;;0.70;0.70;;;10.60;99.90;;;;;;4985528;28;21009;-83
2022/10/13 07:41:33;;;;;;;0.90;0.73;;;10.60;99.90;;;;;;4985123;28;20089;-85
2022/10/13 07:43:59;;;;;;;18.23;2.20;;;11.10;99.90;;;;;;4985234;28;20052;-84
2022/10/13 07:46:24;;;;;;;2.40;1.52;;;10.80;99.90;;;;;;4986555;28;20047;-85
2022/10/13 07:48:53;;;;;;;5.15;1.48;;;10.90;99.90;;;;;;4985993;28;20187;-83
2022/10/13 07:51:20;;;;;;;4.55;1.85;;;11.00;99.90;;;;;;4986452;28;20048;-84
2022/10/13 07:53:47;;;;;;;3.45;1.40;;;11.10;99.90;;;;;;4985970;28;20100;-82
2022/10/13 07:56:14;;;;;;;3.00;2.25;;;11.20;99.90;;;;;;4968759;28;20092;-84
2022/10/13 07:58:43;;;;;;;2.30;2.08;;;11.30;99.90;;;;;;4986118;28;20042;-83
2022/10/13 08:01:12;;;;;;;1.00;0.90;;;12.10;99.90;;;;;;4986551;28;20058;-82
2022/10/13 08:03:39;;;;;;;1.20;1.15;;;12.20;99.90;;;;;;4985597;28;20121;-80
2022/10/13 08:06:06;;;;;;;1.88;1.15;;;11.30;99.90;;;;;;4986514;28;20043;-80
2022/10/13 08:08:32;;;;;;;16.30;2.60;;;11.40;99.90;;;;;;4985952;28;20082;-82
2022/10/13 08:11:09;;;;;;;4.22;2.00;;;11.40;99.90;;;;;;4951414;28;20081;-82
2022/10/13 08:13:35;;;;;;;1.38;1.00;;;11.50;99.90;;;;;;4986170;28;20152;-82
2022/10/13 08:16:02;;;;;;;2.92;2.60;;;11.70;99.90;;;;;;4985122;28;20192;-83
2022/10/13 08:18:28;;;;;;;3.13;1.67;;;11.70;99.90;;;;;;4983565;28;20074;-83
2022/10/13 08:20:54;;;;;;;1.73;1.48;;;11.80;99.90;;;;;;4982807;28;20069;-82
2022/10/13 08:23:20;;;;;;;0.70;0.65;;;11.90;99.90;;;;;;4981121;28;20114;-81
2022/10/13 08:25:46;;;;;;;2.78;1.40;;;11.90;99.90;;;;;;4983134;28;20512;-83
2022/10/13 08:28:21;;;;;;;4.55;2.25;;;11.90;99.90;;;;;;4982677;28;20057;-81
2022/10/13 08:30:47;;;;;;;5.40;1.55;;;11.90;99.90;;;;;;4982916;28;20058;-82
2022/10/13 08:33:13;;;;;;;0.65;0.65;;;11.90;99.90;;;;;;4982709;28;20050;-83
2022/10/13 08:35:39;;;;;;;1.38;1.27;;;12.00;99.90;;;;;;4983084;28;20389;-83
2022/10/13 08:38:04;;;;;;;0.95;0.88;;;12.10;99.90;;;;;;4982722;28;20057;-83
2022/10/13 08:40:30;;;;;;;0.88;0.70;;;12.10;99.90;;;;;;4982389;28;20034;-82
2022/10/13 08:42:56;;;;;;;2.28;1.65;;;12.20;99.90;;;;;;4966596;28;20053;-82
2022/10/13 08:45:25;;;;;;;0.73;0.73;;;12.20;99.90;;;;;;4982557;28;20046;-83
2022/10/13 08:47:54;;;;;;;3.22;2.05;;;12.10;99.90;;;;;;4982063;28;20042;-82
2022/10/13 08:50:27;;;;;;;1.45;1.17;;;12.20;99.90;;;;;;4983140;28;20832;-83
2022/10/13 08:53:14;;;;;;;0.43;0.40;;;12.20;99.90;;;;;;4983583;28;20185;-82
2022/10/13 08:55:55;;;;;;;0.88;0.65;;;12.20;99.90;;;;;;4964447;28;20412;-83
2022/10/13 08:58:22;;;;;;;1.30;1.02;;;12.20;99.90;;;;;;4982651;28;20120;-83
2022/10/13 09:01:09;;;;;;;1.75;1.55;;;12.30;99.90;;;;;;4963568;28;20117;-83
2022/10/13 09:03:49;;;;;;;0.52;0.35;;;12.30;99.90;;;;;;4965150;28;20046;-83
2022/10/13 09:06:17;;;;;;;1.33;1.23;;;12.40;99.90;;;;;;4981610;28;20050;-82
2022/10/13 09:08:57;;;;;;;1.67;1.30;;;12.40;99.90;;;;;;4963766;28;20069;-83
2022/10/13 09:11:29;;;;;;;5.07;1.55;;;12.40;99.90;;;;;;4982689;28;20436;-84
2022/10/13 09:13:58;;;;;;;1.42;1.27;;;12.40;99.90;;;;;;4982438;28;20100;-85
2022/10/13 09:16:28;;;;;;;4.95;2.42;;;12.50;99.90;;;;;;4964844;28;20540;-83
2022/10/13 09:19:10;;;;;;;1.35;1.25;;;12.50;99.90;;;;;;4983066;28;20046;-83
2022/10/13 09:21:36;;;;;;;3.08;1.88;;;12.50;99.90;;;;;;4982078;28;20133;-83
2022/10/13 09:24:06;;;;;;;1.08;0.75;;;12.60;99.90;;;;;;4983262;28;20125;-83
2022/10/13 09:26:36;;;;;;;1.45;1.10;;;12.70;99.90;;;;;;4982756;28;20050;-82
2022/10/13 09:29:10;;;;;;;1.42;1.33;;;12.70;99.90;;;;;;4981772;28;20070;-84
2022/10/13 09:31:36;;;;;;;2.75;1.25;;;12.80;99.90;;;;;;4983201;28;20054;-84
2022/10/13 09:34:11;;;;;;;2.55;2.00;;;12.90;99.90;;;;;;4983165;28;20050;-83
2022/10/13 09:36:37;;;;;;;13.40;2.35;;;13.00;99.90;;;;;;4981739;28;20076;-83
2022/10/13 09:39:14;;;;;;;0.50;0.45;;;13.50;99.90;;;;;;4982141;28;20070;-83
2022/10/13 09:41:42;;;;;;;1.17;1.10;;;13.00;99.90;;;;;;4982366;28;20053;-85
2022/10/13 09:44:25;;;;;;;2.65;1.80;;;13.10;99.90;;;;;;4982173;28;20053;-84
2022/10/13 09:46:55;;;;;;;3.28;1.50;;;13.40;99.90;;;;;;4968541;28;20054;-83
2022/10/13 09:49:29;;;;;;;1.05;0.95;;;13.00;99.90;;;;;;4986778;28;20104;-86
2022/10/13 09:52:02;;;;;;;3.63;2.33;;;13.00;99.90;;;;;;4968321;28;20050;-84
2022/10/13 09:54:47;;;;;;;6.47;1.40;;;13.60;99.90;;;;;;4986468;28;20060;-84
2022/10/13 09:57:26;;;;;;;2.70;1.55;;;13.20;99.90;;;;;;4986899;28;20306;-84
2022/10/13 10:00:20;;;;;;;0.65;0.65;;;13.30;99.90;;;;;;4985970;28;20047;-83
2022/10/13 10:02:57;;;;;;;1.63;1.23;;;13.30;99.90;;;;;;4984039;28;20055;-85
2022/10/13 10:05:41;;;;;;;2.45;1.42;;;13.20;99.90;;;;;;4952374;28;20046;-82
2022/10/13 10:08:26;;;;;;;6.20;1.42;;;13.00;99.90;;;;;;4986220;28;20404;-84
2022/10/13 10:10:53;;;;;;;1.23;0.95;;;13.60;99.90;;;;;;4967901;28;20069;-84
2022/10/13 10:13:19;;;;;;;3.70;2.28;;;13.00;99.90;;;;;;4968677;28;20081;-84
2022/10/13 10:16:04;;;;;;;1.55;0.90;;;13.00;99.90;;;;;;4986203;28;20097;-84
2022/10/13 10:18:47;;;;;;;6.53;1.98;;;13.00;99.90;;;;;;4986011;28;20100;-84
2022/10/13 10:21:42;;;;;;;2.22;1.45;;;14.00;99.90;;;;;;4984869;28;20501;-84
2022/10/13 10:24:08;;;;;;;2.53;1.42;;;13.10;99.90;;;;;;4987665;28;20481;-84
2022/10/13 10:26:49;;;;;;;2.88;1.25;;;13.10;99.90;;;;;;5005636;28;20305;-83
2022/10/13 10:30:05;;;;;;;2.00;1.50;;;13.10;99.90;;;;;;4967989;28;20104;-84
2022/10/13 10:32:58;;;;;;;1.65;1.05;;;13.00;99.90;;;;;;4935029;28;20051;-83
2022/10/13 10:35:56;;;;;;;0.35;0.35;;;13.10;99.90;;;;;;4963836;28;20054;-83
2022/10/13 10:38:41;;;;;;;0.82;0.77;;;13.10;99.90;;;;;;4964797;28;20065;-84
2022/10/13 10:41:38;;;;;;;1.17;0.77;;;13.10;99.90;;;;;;4967783;28;20086;-83
2022/10/13 10:44:19;;;;;;;3.05;1.33;;;13.10;99.90;;;;;;4967069;28;20069;-84
2022/10/13 10:46:48;;;;;;;1.45;1.27;;;13.10;99.90;;;;;;4981837;28;20505;-83
2022/10/13 10:49:33;;;;;;;2.15;1.50;;;13.60;99.90;;;;;;4967212;28;20050;-83
2022/10/13 10:52:01;;;;;;;1.35;1.25;;;13.10;99.90;;;;;;4966929;28;20054;-83
2022/10/13 10:54:53;;;;;;;0.65;0.52;;;13.10;99.90;;;;;;4966701;28;20409;-83
2022/10/13 10:57:35;;;;;;;2.15;1.88;;;13.10;99.90;;;;;;4967448;28;20133;-82
2022/10/13 11:00:05;;;;;;;2.65;1.92;;;13.20;99.90;;;;;;4966954;28;20502;-83
2022/10/13 11:02:45;;;;;;;5.47;2.38;;;13.20;99.90;;;;;;4966982;28;20059;-83
2022/10/13 11:05:11;;;;;;;1.60;0.63;;;13.10;99.90;;;;;;4966744;28;20513;-82
2022/10/13 11:07:37;;;;;;;2.60;2.08;;;13.10;99.90;;;;;;4966955;28;20039;-83
2022/10/13 11:10:20;;;;;;;5.13;2.72;;;13.10;99.90;;;;;;4966658;28;20425;-84
2022/10/13 11:12:52;;;;;;;2.25;1.52;;;13.20;99.90;;;;;;4966348;28;20521;-83
2022/10/13 11:15:22;;;;;;;5.25;1.25;;;13.20;99.90;;;;;;4966527;28;20101;-83
2022/10/13 11:17:48;;;;;;;2.00;1.25;;;13.30;99.90;;;;;;4966246;28;20409;-84
2022/10/13 11:20:19;;;;;;;0.95;0.88;;;13.30;99.90;;;;;;4967185;28;20050;-83
2022/10/13 11:23:04;;;;;;;1.10;0.77;;;13.40;99.90;;;;;;4966129;28;20047;-82
2022/10/13 11:25:43;;;;;;;1.60;1.48;;;13.40;99.90;;;;;;4964690;28;20121;-82
2022/10/13 11:28:21;;;;;;;3.30;1.75;;;13.30;99.90;;;;;;4966521;28;20409;-83
2022/10/13 11:30:49;;;;;;;2.28;1.02;;;13.40;99.90;;;;;;4965756;28;20409;-83
2022/10/13 11:33:33;;;;;;;4.95;1.90;;;13.40;99.90;;;;;;4965236;28;20133;-82
2022/10/13 11:36:28;;;;;;;1.17;0.77;;;13.40;99.90;;;;;;4966870;28;20054;-82
2022/10/13 11:39:16;;;;;;;2.22;1.98;;;13.40;99.90;;;;;;4966993;28;20069;-83
2022/10/13 11:42:01;;;;;;;1.40;0.73;;;13.40;99.90;;;;;;4966204;28;20086;-82
2022/10/13 11:44:52;;;;;;;1.90;1.00;;;13.40;99.90;;;;;;4965764;28;20046;-82
2022/10/13 11:47:39;;;;;;;2.08;1.73;;;13.40;99.90;;;;;;4963728;28;20049;-82
2022/10/13 11:50:21;;;;;;;2.08;1.58;;;13.40;99.90;;;;;;4963619;28;20051;-82
2022/10/13 11:53:08;;;;;;;1.05;0.80;;;13.50;99.90;;;;;;4964006;28;20054;-83
2022/10/13 11:55:46;;;;;;;2.53;1.52;;;13.60;99.90;;;;;;4963717;28;20130;-82
2022/10/13 11:58:21;;;;;;;0.77;0.77;;;13.80;99.90;;;;;;4964316;28;20089;-83
2022/10/13 12:00:58;;;;;;;2.22;1.65;;;13.90;99.90;;;;;;4953484;28;20066;-81
2022/10/13 12:03:27;;;;;;;4.00;2.15;;;14.00;99.90;;;;;;4944034;29;20524;-83
2022/10/13 12:06:02;;;;;;;1.83;1.02;;;14.10;99.90;;;;;;4944798;29;20103;-83
2022/10/13 12:08:29;;;;;;;0.85;0.60;;;14.00;99.90;;;;;;4943670;28;20043;-82
2022/10/13 12:10:57;;;;;;;0.85;0.85;;;14.00;99.90;;;;;;4944595;29;20134;-82
2022/10/13 12:13:28;;;;;;;3.97;1.73;;;14.10;99.90;;;;;;4928033;29;20055;-83
2022/10/13 12:16:02;;;;;;;1.05;0.95;;;14.10;99.90;;;;;;4944021;29;20092;-83
2022/10/13 12:18:33;;;;;;;2.78;1.63;;;14.10;99.90;;;;;;4944192;29;20073;-83
2022/10/13 12:21:21;;;;;;;1.70;1.45;;;14.80;99.90;;;;;;4944343;29;20062;-82
2022/10/13 12:23:49;;;;;;;1.85;1.30;;;14.30;99.90;;;;;;4943756;29;20214;-83
2022/10/13 12:26:24;;;;;;;1.23;0.52;;;14.30;99.90;;;;;;4944525;29;20488;-83
2022/10/13 12:29:09;;;;;;;3.60;1.90;;;14.20;99.90;;;;;;4944682;29;20570;-83
2022/10/13 12:31:47;;;;;;;2.17;1.27;;;14.10;99.90;;;;;;4944229;29;20158;-83
2022/10/13 12:34:20;;;;;;;3.30;2.20;;;14.00;99.90;;;;;;4943840;29;20134;-83
2022/10/13 12:36:56;;;;;;;1.35;1.25;;;13.90;99.90;;;;;;4944075;29;20051;-83
2022/10/13 12:39:24;;;;;;;12.48;1.23;;;13.90;99.90;;;;;;4943886;29;20553;-82
2022/10/13 12:41:50;;;;;;;7.53;1.38;;;13.90;99.90;;;;;;4943781;29;20130;-83
2022/10/13 12:44:29;;;;;;;2.03;1.73;;;13.90;99.90;;;;;;4944457;29;20048;-83
2022/10/13 12:47:00;;;;;;;3.80;2.15;;;13.90;99.90;;;;;;4944170;29;20039;-83
2022/10/13 12:49:32;;;;;;;3.15;1.88;;;13.90;99.90;;;;;;4944068;29;20043;-82
2022/10/13 12:52:18;;;;;;;4.57;2.33;;;13.90;99.90;;;;;;4943464;29;20573;-82
2022/10/13 12:54:55;;;;;;;2.05;1.75;;;13.80;99.90;;;;;;4926506;29;20126;-82
2022/10/13 12:57:36;;;;;;;3.28;2.38;;;14.40;99.90;;;;;;4942835;29;20039;-83
2022/10/13 13:00:20;;;;;;;1.77;1.65;;;13.80;99.90;;;;;;4948069;28;20138;-83
2022/10/13 13:02:55;;;;;;;1.98;1.75;;;13.80;99.90;;;;;;4963157;28;20058;-80
2022/10/13 13:05:35;;;;;;;2.05;1.77;;;13.80;99.90;;;;;;4946213;28;20154;-84
2022/10/13 13:08:04;;;;;;;2.60;0.98;;;13.70;99.90;;;;;;4962717;28;20532;-83
2022/10/13 13:10:30;;;;;;;4.82;2.03;;;13.80;99.90;;;;;;4964899;28;20058;-82
2022/10/13 13:13:10;;;;;;;3.35;1.02;;;13.80;99.90;;;;;;4964033;28;20051;-82